sensor_id;sensor_type;location;lat;lon;timestamp;temperature;humidity
30694;DHT22;17446;48.022;-1.740;2023-01-16T00:00:52;9.10;99.90
30694;DHT22;17446;48.022;-1.740;2023-01-16T00:03:18;9.10;99.90
30694;DHT22;17446;48.022;-1.740;2023-01-16T00:05:44;9.10;99.90
30694;DHT22;17446;48.022;-1.740;2023-01-16T00:08:10;9.10;99.90
30694;DHT22;17446;48.022;-1.740;2023-01-16T00:10:35;9.10;99.90
30694;DHT22;17446;48.022;-1.740;2023-01-16T00:13:01;9.00;99.90
30694;DHT22;17446;48.022;-1.740;2023-01-16T00:15:27;9.00;99.90
30694;DHT22;17446;48.022;-1.740;2023-01-16T00:17:52;9.00;99.90
30694;DHT22;17446;48.022;-1.740;2023-01-16T00:20:18;9.00;99.90
30694;DHT22;17446;48.022;-1.740;2023-01-16T00:22:44;8.90;99.90
30694;DHT22;17446;48.022;-1.740;2023-01-16T00:25:09;8.90;99.90
30694;DHT22;17446;48.022;-1.740;2023-01-16T00:27:35;8.90;99.90
30694;DHT22;17446;48.022;-1.740;2023-01-16T00:30:01;8.90;99.90
30694;DHT22;17446;48.022;-1.740;2023-01-16T00:32:27;8.90;99.90
30694;DHT22;17446;48.022;-1.740;2023-01-16T00:34:53;8.90;99.90
30694;DHT22;17446;48.022;-1.740;2023-01-16T00:37:18;8.90;99.90
30694;DHT22;17446;48.022;-1.740;2023-01-16T00:39:44;8.90;99.90
30694;DHT22;17446;48.022;-1.740;2023-01-16T00:42:09;8.90;99.90
30694;DHT22;17446;48.022;-1.740;2023-01-16T00:44:35;8.90;99.90
30694;DHT22;17446;48.022;-1.740;2023-01-16T00:47:01;8.90;99.90
30694;DHT22;17446;48.022;-1.740;2023-01-16T00:49:27;8.90;99.90
30694;DHT22;17446;48.022;-1.740;2023-01-16T00:51:53;8.90;99.90
30694;DHT22;17446;48.022;-1.740;2023-01-16T00:54:18;8.90;99.90
30694;DHT22;17446;48.022;-1.740;2023-01-16T00:56:44;8.90;99.90
30694;DHT22;17446;48.022;-1.740;2023-01-16T00:59:10;8.80;99.90
30694;DHT22;17446;48.022;-1.740;2023-01-16T01:01:36;8.80;99.90
30694;DHT22;17446;48.022;-1.740;2023-01-16T01:04:02;8.80;99.90
30694;DHT22;17446;48.022;-1.740;2023-01-16T01:06:28;8.80;99.90
30694;DHT22;17446;48.022;-1.740;2023-01-16T01:08:54;8.80;99.90
30694;DHT22;17446;48.022;-1.740;2023-01-16T01:11:20;8.80;99.90
30694;DHT22;17446;48.022;-1.740;2023-01-16T01:13:45;8.80;99.90
30694;DHT22;17446;48.022;-1.740;2023-01-16T01:16:11;8.80;99.90
30694;DHT22;17446;48.022;-1.740;2023-01-16T01:18:38;8.80;99.90
30694;DHT22;17446;48.022;-1.740;2023-01-16T01:21:03;8.80;99.90
30694;DHT22;17446;48.022;-1.740;2023-01-16T01:23:29;8.70;99.90
30694;DHT22;17446;48.022;-1.740;2023-01-16T01:25:55;8.80;99.90
30694;DHT22;17446;48.022;-1.740;2023-01-16T01:28:20;8.80;99.90
30694;DHT22;17446;48.022;-1.740;2023-01-16T01:30:46;8.70;99.90
30694;DHT22;17446;48.022;-1.740;2023-01-16T01:33:12;8.70;99.90
30694;DHT22;17446;48.022;-1.740;2023-01-16T01:35:38;8.70;99.90
30694;DHT22;17446;48.022;-1.740;2023-01-16T01:38:04;8.70;99.90
30694;DHT22;17446;48.022;-1.740;2023-01-16T01:40:30;8.70;99.90
30694;DHT22;17446;48.022;-1.740;2023-01-16T01:42:55;8.60;99.90
30694;DHT22;17446;48.022;-1.740;2023-01-16T01:45:26;8.60;99.90
30694;DHT22;17446;48.022;-1.740;2023-01-16T01:50:28;8.60;99.90
30694;DHT22;17446;48.022;-1.740;2023-01-16T01:52:59;8.60;99.90
30694;DHT22;17446;48.022;-1.740;2023-01-16T01:55:27;8.50;99.90
30694;DHT22;17446;48.022;-1.740;2023-01-16T01:57:56;8.50;99.90
30694;DHT22;17446;48.022;-1.740;2023-01-16T02:00:25;8.50;99.90
30694;DHT22;17446;48.022;-1.740;2023-01-16T02:05:34;8.50;99.90
30694;DHT22;17446;48.022;-1.740;2023-01-16T02:08:02;8.50;99.90
30694;DHT22;17446;48.022;-1.740;2023-01-16T02:12:58;8.60;99.90
30694;DHT22;17446;48.022;-1.740;2023-01-16T02:15:24;8.60;99.90
30694;DHT22;17446;48.022;-1.740;2023-01-16T02:17:49;8.60;99.90
30694;DHT22;17446;48.022;-1.740;2023-01-16T02:35:02;8.70;99.90
30694;DHT22;17446;48.022;-1.740;2023-01-16T02:40:24;8.60;99.90
30694;DHT22;17446;48.022;-1.740;2023-01-16T02:48:52;8.60;99.90
30694;DHT22;17446;48.022;-1.740;2023-01-16T02:56:31;8.60;99.90
30694;DHT22;17446;48.022;-1.740;2023-01-16T02:59:01;8.60;99.90
30694;DHT22;17446;48.022;-1.740;2023-01-16T03:01:26;8.60;99.90
30694;DHT22;17446;48.022;-1.740;2023-01-16T03:06:26;8.50;99.90
30694;DHT22;17446;48.022;-1.740;2023-01-16T03:09:13;8.50;99.90
30694;DHT22;17446;48.022;-1.740;2023-01-16T03:12:28;8.50;99.90
30694;DHT22;17446;48.022;-1.740;2023-01-16T03:17:53;8.50;99.90
30694;DHT22;17446;48.022;-1.740;2023-01-16T03:31:24;8.40;99.90
30694;DHT22;17446;48.022;-1.740;2023-01-16T03:34:11;8.40;99.90
30694;DHT22;17446;48.022;-1.740;2023-01-16T03:36:40;8.30;99.90
30694;DHT22;17446;48.022;-1.740;2023-01-16T03:39:10;8.40;99.90
30694;DHT22;17446;48.022;-1.740;2023-01-16T03:41:40;8.40;99.90
30694;DHT22;17446;48.022;-1.740;2023-01-16T03:44:12;8.40;99.90
30694;DHT22;17446;48.022;-1.740;2023-01-16T03:46:45;8.40;99.90
30694;DHT22;17446;48.022;-1.740;2023-01-16T03:49:27;8.40;99.90
30694;DHT22;17446;48.022;-1.740;2023-01-16T03:52:00;8.40;99.90
30694;DHT22;17446;48.022;-1.740;2023-01-16T03:54:50;8.40;99.90
30694;DHT22;17446;48.022;-1.740;2023-01-16T03:59:45;8.40;99.90
30694;DHT22;17446;48.022;-1.740;2023-01-16T04:02:33;8.40;99.90
30694;DHT22;17446;48.022;-1.740;2023-01-16T04:05:08;8.30;99.90
30694;DHT22;17446;48.022;-1.740;2023-01-16T04:07:50;8.30;99.90
30694;DHT22;17446;48.022;-1.740;2023-01-16T04:10:20;8.30;99.90
30694;DHT22;17446;48.022;-1.740;2023-01-16T04:12:57;8.30;99.90
30694;DHT22;17446;48.022;-1.740;2023-01-16T04:15:25;8.30;99.90
30694;DHT22;17446;48.022;-1.740;2023-01-16T04:17:53;8.30;99.90
30694;DHT22;17446;48.022;-1.740;2023-01-16T04:20:19;8.20;99.90
30694;DHT22;17446;48.022;-1.740;2023-01-16T04:22:49;8.30;99.90
30694;DHT22;17446;48.022;-1.740;2023-01-16T04:25:15;8.30;99.90
30694;DHT22;17446;48.022;-1.740;2023-01-16T04:27:42;8.30;99.90
30694;DHT22;17446;48.022;-1.740;2023-01-16T04:30:08;8.30;99.90
30694;DHT22;17446;48.022;-1.740;2023-01-16T04:32:33;8.30;99.90
30694;DHT22;17446;48.022;-1.740;2023-01-16T04:34:59;8.30;99.90
30694;DHT22;17446;48.022;-1.740;2023-01-16T04:37:25;8.30;99.90
30694;DHT22;17446;48.022;-1.740;2023-01-16T04:39:50;8.30;99.90
30694;DHT22;17446;48.022;-1.740;2023-01-16T04:42:16;8.30;99.90
30694;DHT22;17446;48.022;-1.740;2023-01-16T04:44:42;8.40;99.90
30694;DHT22;17446;48.022;-1.740;2023-01-16T04:47:08;8.30;99.90
30694;DHT22;17446;48.022;-1.740;2023-01-16T04:49:33;8.30;99.90
30694;DHT22;17446;48.022;-1.740;2023-01-16T04:51:59;8.30;99.90
30694;DHT22;17446;48.022;-1.740;2023-01-16T04:54:25;8.20;99.90
30694;DHT22;17446;48.022;-1.740;2023-01-16T04:56:51;8.20;99.90
30694;DHT22;17446;48.022;-1.740;2023-01-16T04:59:16;8.10;99.90
30694;DHT22;17446;48.022;-1.740;2023-01-16T05:01:43;8.00;99.90
30694;DHT22;17446;48.022;-1.740;2023-01-16T05:04:11;8.00;99.90
30694;DHT22;17446;48.022;-1.740;2023-01-16T05:06:37;8.00;99.90
30694;DHT22;17446;48.022;-1.740;2023-01-16T05:09:04;8.00;99.90
30694;DHT22;17446;48.022;-1.740;2023-01-16T05:11:30;8.00;99.90
30694;DHT22;17446;48.022;-1.740;2023-01-16T05:13:57;7.90;99.90
30694;DHT22;17446;48.022;-1.740;2023-01-16T05:16:22;7.90;99.90
30694;DHT22;17446;48.022;-1.740;2023-01-16T05:18:48;8.00;99.90
30694;DHT22;17446;48.022;-1.740;2023-01-16T05:21:13;8.00;99.90
30694;DHT22;17446;48.022;-1.740;2023-01-16T05:23:39;8.00;99.90
30694;DHT22;17446;48.022;-1.740;2023-01-16T05:26:05;8.00;99.90
30694;DHT22;17446;48.022;-1.740;2023-01-16T05:28:32;8.00;99.90
30694;DHT22;17446;48.022;-1.740;2023-01-16T05:30:58;7.90;99.90
30694;DHT22;17446;48.022;-1.740;2023-01-16T05:33:24;7.80;99.90
30694;DHT22;17446;48.022;-1.740;2023-01-16T05:35:50;7.80;99.90
30694;DHT22;17446;48.022;-1.740;2023-01-16T05:38:16;7.80;99.90
30694;DHT22;17446;48.022;-1.740;2023-01-16T05:40:43;7.80;99.90
30694;DHT22;17446;48.022;-1.740;2023-01-16T05:43:09;7.80;99.90
30694;DHT22;17446;48.022;-1.740;2023-01-16T05:45:36;7.80;99.90
30694;DHT22;17446;48.022;-1.740;2023-01-16T05:48:01;7.80;99.90
30694;DHT22;17446;48.022;-1.740;2023-01-16T05:50:27;7.80;99.90
30694;DHT22;17446;48.022;-1.740;2023-01-16T05:52:53;7.70;99.90
30694;DHT22;17446;48.022;-1.740;2023-01-16T05:55:18;7.70;99.90
30694;DHT22;17446;48.022;-1.740;2023-01-16T05:57:44;7.70;99.90
30694;DHT22;17446;48.022;-1.740;2023-01-16T06:00:10;7.70;99.90
30694;DHT22;17446;48.022;-1.740;2023-01-16T06:02:36;7.70;99.90
30694;DHT22;17446;48.022;-1.740;2023-01-16T06:05:02;7.70;99.90
30694;DHT22;17446;48.022;-1.740;2023-01-16T06:07:28;7.70;99.90
30694;DHT22;17446;48.022;-1.740;2023-01-16T06:09:54;7.80;99.90
30694;DHT22;17446;48.022;-1.740;2023-01-16T06:12:19;7.80;99.90
30694;DHT22;17446;48.022;-1.740;2023-01-16T06:14:46;7.80;99.90
30694;DHT22;17446;48.022;-1.740;2023-01-16T06:17:12;7.70;99.90
30694;DHT22;17446;48.022;-1.740;2023-01-16T06:19:42;7.70;99.90
30694;DHT22;17446;48.022;-1.740;2023-01-16T06:22:07;7.70;99.90
30694;DHT22;17446;48.022;-1.740;2023-01-16T06:24:33;7.70;99.90
30694;DHT22;17446;48.022;-1.740;2023-01-16T06:26:59;7.70;99.90
30694;DHT22;17446;48.022;-1.740;2023-01-16T06:29:25;7.70;99.90
30694;DHT22;17446;48.022;-1.740;2023-01-16T06:31:50;7.70;99.90
30694;DHT22;17446;48.022;-1.740;2023-01-16T06:34:16;7.70;99.90
30694;DHT22;17446;48.022;-1.740;2023-01-16T06:36:41;7.60;99.90
30694;DHT22;17446;48.022;-1.740;2023-01-16T06:39:10;7.60;99.90
30694;DHT22;17446;48.022;-1.740;2023-01-16T06:41:36;7.60;99.90
30694;DHT22;17446;48.022;-1.740;2023-01-16T06:44:01;7.60;99.90
30694;DHT22;17446;48.022;-1.740;2023-01-16T06:46:27;7.60;99.90
30694;DHT22;17446;48.022;-1.740;2023-01-16T06:48:53;7.60;99.90
30694;DHT22;17446;48.022;-1.740;2023-01-16T06:51:18;7.60;99.90
30694;DHT22;17446;48.022;-1.740;2023-01-16T06:53:44;7.60;99.90
30694;DHT22;17446;48.022;-1.740;2023-01-16T06:56:09;7.60;99.90
30694;DHT22;17446;48.022;-1.740;2023-01-16T06:58:35;7.60;99.90
30694;DHT22;17446;48.022;-1.740;2023-01-16T07:01:00;7.60;99.90
30694;DHT22;17446;48.022;-1.740;2023-01-16T07:03:26;7.60;99.90
30694;DHT22;17446;48.022;-1.740;2023-01-16T07:05:52;7.70;99.90
30694;DHT22;17446;48.022;-1.740;2023-01-16T07:08:17;7.70;99.90
30694;DHT22;17446;48.022;-1.740;2023-01-16T07:10:43;7.70;99.90
30694;DHT22;17446;48.022;-1.740;2023-01-16T07:13:08;7.70;99.90
30694;DHT22;17446;48.022;-1.740;2023-01-16T07:15:36;7.70;99.90
30694;DHT22;17446;48.022;-1.740;2023-01-16T07:18:20;7.70;99.90
30694;DHT22;17446;48.022;-1.740;2023-01-16T07:21:08;7.70;99.90
30694;DHT22;17446;48.022;-1.740;2023-01-16T07:23:59;7.70;99.90
30694;DHT22;17446;48.022;-1.740;2023-01-16T07:26:26;7.70;99.90
30694;DHT22;17446;48.022;-1.740;2023-01-16T07:28:53;7.70;99.90
30694;DHT22;17446;48.022;-1.740;2023-01-16T07:31:19;7.70;99.90
30694;DHT22;17446;48.022;-1.740;2023-01-16T07:33:45;7.70;99.90
30694;DHT22;17446;48.022;-1.740;2023-01-16T07:36:11;7.70;99.90
30694;DHT22;17446;48.022;-1.740;2023-01-16T07:38:36;7.70;99.90
30694;DHT22;17446;48.022;-1.740;2023-01-16T07:41:02;7.70;99.90
30694;DHT22;17446;48.022;-1.740;2023-01-16T07:43:27;7.70;99.90
30694;DHT22;17446;48.022;-1.740;2023-01-16T07:45:53;7.70;99.90
30694;DHT22;17446;48.022;-1.740;2023-01-16T07:48:20;7.70;99.90
30694;DHT22;17446;48.022;-1.740;2023-01-16T07:50:56;7.70;99.90
30694;DHT22;17446;48.022;-1.740;2023-01-16T07:53:25;7.70;99.90
30694;DHT22;17446;48.022;-1.740;2023-01-16T07:55:52;7.70;99.90
30694;DHT22;17446;48.022;-1.740;2023-01-16T07:58:19;7.70;99.90
30694;DHT22;17446;48.022;-1.740;2023-01-16T08:00:45;7.70;99.90
30694;DHT22;17446;48.022;-1.740;2023-01-16T08:03:11;7.80;99.90
30694;DHT22;17446;48.022;-1.740;2023-01-16T08:05:38;7.80;99.90
30694;DHT22;17446;48.022;-1.740;2023-01-16T08:08:04;7.80;99.90
30694;DHT22;17446;48.022;-1.740;2023-01-16T08:10:29;7.70;99.90
30694;DHT22;17446;48.022;-1.740;2023-01-16T08:12:55;7.70;99.90
30694;DHT22;17446;48.022;-1.740;2023-01-16T08:15:21;7.60;99.90
30694;DHT22;17446;48.022;-1.740;2023-01-16T08:17:46;7.50;99.90
30694;DHT22;17446;48.022;-1.740;2023-01-16T08:20:12;7.50;99.90
30694;DHT22;17446;48.022;-1.740;2023-01-16T08:22:42;7.50;99.90
30694;DHT22;17446;48.022;-1.740;2023-01-16T08:25:08;7.50;99.90
30694;DHT22;17446;48.022;-1.740;2023-01-16T08:27:34;7.50;99.90
30694;DHT22;17446;48.022;-1.740;2023-01-16T08:30:00;7.50;99.90
30694;DHT22;17446;48.022;-1.740;2023-01-16T08:32:25;7.50;99.90
30694;DHT22;17446;48.022;-1.740;2023-01-16T08:34:51;7.50;99.90
30694;DHT22;17446;48.022;-1.740;2023-01-16T08:37:16;7.50;99.90
30694;DHT22;17446;48.022;-1.740;2023-01-16T08:39:42;7.50;99.90
30694;DHT22;17446;48.022;-1.740;2023-01-16T08:42:07;7.50;99.90
30694;DHT22;17446;48.022;-1.740;2023-01-16T08:44:52;7.50;99.90
30694;DHT22;17446;48.022;-1.740;2023-01-16T08:47:37;7.50;99.90
30694;DHT22;17446;48.022;-1.740;2023-01-16T08:50:21;7.60;99.90
30694;DHT22;17446;48.022;-1.740;2023-01-16T08:53:05;7.60;99.90
30694;DHT22;17446;48.022;-1.740;2023-01-16T08:55:31;7.70;99.90
30694;DHT22;17446;48.022;-1.740;2023-01-16T08:57:57;7.60;99.90
30694;DHT22;17446;48.022;-1.740;2023-01-16T09:00:28;7.70;99.90
30694;DHT22;17446;48.022;-1.740;2023-01-16T09:02:54;7.70;99.90
30694;DHT22;17446;48.022;-1.740;2023-01-16T09:05:21;7.70;99.90
30694;DHT22;17446;48.022;-1.740;2023-01-16T09:07:47;7.70;99.90
30694;DHT22;17446;48.022;-1.740;2023-01-16T09:10:13;7.70;99.90
30694;DHT22;17446;48.022;-1.740;2023-01-16T09:12:39;7.70;99.90
30694;DHT22;17446;48.022;-1.740;2023-01-16T09:15:24;7.80;99.90
30694;DHT22;17446;48.022;-1.740;2023-01-16T09:17:49;7.90;99.90
30694;DHT22;17446;48.022;-1.740;2023-01-16T09:20:15;7.90;99.90
30694;DHT22;17446;48.022;-1.740;2023-01-16T09:22:41;7.90;99.90
30694;DHT22;17446;48.022;-1.740;2023-01-16T09:25:07;7.90;99.90
30694;DHT22;17446;48.022;-1.740;2023-01-16T09:27:32;8.00;99.90
30694;DHT22;17446;48.022;-1.740;2023-01-16T09:29:58;8.00;99.90
30694;DHT22;17446;48.022;-1.740;2023-01-16T09:32:25;8.00;99.90
30694;DHT22;17446;48.022;-1.740;2023-01-16T09:34:50;8.00;99.90
30694;DHT22;17446;48.022;-1.740;2023-01-16T09:37:16;8.00;99.90
30694;DHT22;17446;48.022;-1.740;2023-01-16T09:39:42;8.00;99.90
30694;DHT22;17446;48.022;-1.740;2023-01-16T09:45:07;8.00;99.90
30694;DHT22;17446;48.022;-1.740;2023-01-16T09:47:34;8.10;99.90
30694;DHT22;17446;48.022;-1.740;2023-01-16T09:52:48;8.20;99.90
30694;DHT22;17446;48.022;-1.740;2023-01-16T09:55:35;8.30;99.90
30694;DHT22;17446;48.022;-1.740;2023-01-16T09:58:22;8.40;99.90
30694;DHT22;17446;48.022;-1.740;2023-01-16T10:01:13;8.40;99.90
30694;DHT22;17446;48.022;-1.740;2023-01-16T10:03:39;8.50;99.90
30694;DHT22;17446;48.022;-1.740;2023-01-16T10:11:43;8.60;99.90
30694;DHT22;17446;48.022;-1.740;2023-01-16T10:22:36;8.50;99.90
30694;DHT22;17446;48.022;-1.740;2023-01-16T10:25:26;8.50;99.90
30694;DHT22;17446;48.022;-1.740;2023-01-16T10:28:11;8.40;99.90
30694;DHT22;17446;48.022;-1.740;2023-01-16T10:30:47;8.40;99.90
30694;DHT22;17446;48.022;-1.740;2023-01-16T10:36:00;8.50;99.90
30694;DHT22;17446;48.022;-1.740;2023-01-16T10:38:55;8.50;99.90
30694;DHT22;17446;48.022;-1.740;2023-01-16T10:41:30;8.50;99.90
30694;DHT22;17446;48.022;-1.740;2023-01-16T10:47:22;8.50;99.90
30694;DHT22;17446;48.022;-1.740;2023-01-16T10:50:08;8.50;99.90
30694;DHT22;17446;48.022;-1.740;2023-01-16T10:52:35;8.50;99.90
30694;DHT22;17446;48.022;-1.740;2023-01-16T10:55:02;8.40;99.90
30694;DHT22;17446;48.022;-1.740;2023-01-16T10:57:28;8.40;99.90
30694;DHT22;17446;48.022;-1.740;2023-01-16T11:00:06;8.40;99.90
30694;DHT22;17446;48.022;-1.740;2023-01-16T11:02:39;8.40;99.90
30694;DHT22;17446;48.022;-1.740;2023-01-16T11:05:34;8.50;99.90
30694;DHT22;17446;48.022;-1.740;2023-01-16T11:08:15;8.50;99.90
30694;DHT22;17446;48.022;-1.740;2023-01-16T11:10:49;8.50;99.90
30694;DHT22;17446;48.022;-1.740;2023-01-16T11:13:23;8.50;99.90
30694;DHT22;17446;48.022;-1.740;2023-01-16T11:18:55;8.50;99.90
30694;DHT22;17446;48.022;-1.740;2023-01-16T11:21:32;8.50;99.90
30694;DHT22;17446;48.022;-1.740;2023-01-16T11:24:10;8.50;99.90
30694;DHT22;17446;48.022;-1.740;2023-01-16T11:26:39;8.50;99.90
30694;DHT22;17446;48.022;-1.740;2023-01-16T11:29:15;8.50;99.90
30694;DHT22;17446;48.022;-1.740;2023-01-16T11:31:41;8.50;99.90
30694;DHT22;17446;48.022;-1.740;2023-01-16T11:34:11;8.50;99.90
30694;DHT22;17446;48.022;-1.740;2023-01-16T11:36:40;8.50;99.90
30694;DHT22;17446;48.022;-1.740;2023-01-16T11:39:19;8.50;99.90
30694;DHT22;17446;48.022;-1.740;2023-01-16T11:41:49;8.50;99.90
30694;DHT22;17446;48.022;-1.740;2023-01-16T11:47:05;8.60;99.90
30694;DHT22;17446;48.022;-1.740;2023-01-16T11:49:38;8.60;99.90
30694;DHT22;17446;48.022;-1.740;2023-01-16T11:52:04;8.60;99.90
30694;DHT22;17446;48.022;-1.740;2023-01-16T11:54:33;8.70;99.90
30694;DHT22;17446;48.022;-1.740;2023-01-16T12:02:15;8.80;99.90
30694;DHT22;17446;48.022;-1.740;2023-01-16T12:05:10;8.80;99.90
30694;DHT22;17446;48.022;-1.740;2023-01-16T12:11:06;8.90;99.90
30694;DHT22;17446;48.022;-1.740;2023-01-16T12:13:52;8.90;99.90
30694;DHT22;17446;48.022;-1.740;2023-01-16T12:25:45;9.10;99.90
30694;DHT22;17446;48.022;-1.740;2023-01-16T12:39:51;9.10;99.90
30694;DHT22;17446;48.022;-1.740;2023-01-16T12:54:08;9.20;99.90
30694;DHT22;17446;48.022;-1.740;2023-01-16T12:56:38;9.20;99.90
30694;DHT22;17446;48.022;-1.740;2023-01-16T12:59:22;9.30;99.90
30694;DHT22;17446;48.022;-1.740;2023-01-16T13:01:55;9.30;99.90
30694;DHT22;17446;48.022;-1.740;2023-01-16T13:04:53;9.30;99.90
30694;DHT22;17446;48.022;-1.740;2023-01-16T13:07:21;9.40;99.90
30694;DHT22;17446;48.022;-1.740;2023-01-16T13:10:18;9.40;99.90
30694;DHT22;17446;48.022;-1.740;2023-01-16T13:13:13;9.40;99.90
30694;DHT22;17446;48.022;-1.740;2023-01-16T13:16:13;9.50;99.90
30694;DHT22;17446;48.022;-1.740;2023-01-16T13:18:47;9.40;99.90
30694;DHT22;17446;48.022;-1.740;2023-01-16T13:21:23;9.50;99.90
30694;DHT22;17446;48.022;-1.740;2023-01-16T13:23:56;9.50;99.90
30694;DHT22;17446;48.022;-1.740;2023-01-16T13:26:24;9.60;99.90
30694;DHT22;17446;48.022;-1.740;2023-01-16T13:29:07;9.60;99.90
30694;DHT22;17446;48.022;-1.740;2023-01-16T13:31:54;9.60;99.90
30694;DHT22;17446;48.022;-1.740;2023-01-16T13:34:24;9.70;99.90
30694;DHT22;17446;48.022;-1.740;2023-01-16T13:42:41;9.90;99.90
30694;DHT22;17446;48.022;-1.740;2023-01-16T13:45:21;10.00;99.90
30694;DHT22;17446;48.022;-1.740;2023-01-16T13:48:10;10.00;99.90
30694;DHT22;17446;48.022;-1.740;2023-01-16T13:50:36;10.00;99.90
30694;DHT22;17446;48.022;-1.740;2023-01-16T13:53:06;10.00;99.90
30694;DHT22;17446;48.022;-1.740;2023-01-16T13:55:37;10.00;99.90
30694;DHT22;17446;48.022;-1.740;2023-01-16T13:58:18;10.00;99.90
30694;DHT22;17446;48.022;-1.740;2023-01-16T14:00:45;10.00;99.90
30694;DHT22;17446;48.022;-1.740;2023-01-16T14:03:21;10.00;99.90
30694;DHT22;17446;48.022;-1.740;2023-01-16T14:09:07;10.00;99.90
30694;DHT22;17446;48.022;-1.740;2023-01-16T14:12:16;10.00;99.90
30694;DHT22;17446;48.022;-1.740;2023-01-16T14:23:03;10.10;99.90
30694;DHT22;17446;48.022;-1.740;2023-01-16T14:25:52;10.00;99.90
30694;DHT22;17446;48.022;-1.740;2023-01-16T14:28:19;10.00;99.90
30694;DHT22;17446;48.022;-1.740;2023-01-16T14:30:45;10.00;99.90
30694;DHT22;17446;48.022;-1.740;2023-01-16T14:33:16;10.00;99.90
30694;DHT22;17446;48.022;-1.740;2023-01-16T14:35:47;10.00;99.90
30694;DHT22;17446;48.022;-1.740;2023-01-16T14:38:20;9.90;99.90
30694;DHT22;17446;48.022;-1.740;2023-01-16T14:41:11;9.90;99.90
30694;DHT22;17446;48.022;-1.740;2023-01-16T14:44:17;9.90;99.90
30694;DHT22;17446;48.022;-1.740;2023-01-16T14:47:25;9.90;99.90
30694;DHT22;17446;48.022;-1.740;2023-01-16T14:50:17;9.90;99.90
30694;DHT22;17446;48.022;-1.740;2023-01-16T14:53:13;9.90;99.90
30694;DHT22;17446;48.022;-1.740;2023-01-16T14:56:26;9.90;99.90
30694;DHT22;17446;48.022;-1.740;2023-01-16T14:59:06;9.80;99.90
30694;DHT22;17446;48.022;-1.740;2023-01-16T15:01:38;9.80;99.90
30694;DHT22;17446;48.022;-1.740;2023-01-16T15:04:24;9.80;99.90
30694;DHT22;17446;48.022;-1.740;2023-01-16T15:06:56;9.70;99.90
30694;DHT22;17446;48.022;-1.740;2023-01-16T15:09:28;9.70;99.90
30694;DHT22;17446;48.022;-1.740;2023-01-16T15:12:02;9.70;99.90
30694;DHT22;17446;48.022;-1.740;2023-01-16T15:14:33;9.70;99.90
30694;DHT22;17446;48.022;-1.740;2023-01-16T15:20:15;9.60;99.90
30694;DHT22;17446;48.022;-1.740;2023-01-16T15:23:03;9.60;99.90
30694;DHT22;17446;48.022;-1.740;2023-01-16T15:25:33;9.60;99.90
30694;DHT22;17446;48.022;-1.740;2023-01-16T15:30:36;9.50;99.90
30694;DHT22;17446;48.022;-1.740;2023-01-16T15:33:03;9.40;99.90
30694;DHT22;17446;48.022;-1.740;2023-01-16T15:35:55;9.50;99.90
30694;DHT22;17446;48.022;-1.740;2023-01-16T15:38:23;9.40;99.90
30694;DHT22;17446;48.022;-1.740;2023-01-16T15:40:51;9.40;99.90
30694;DHT22;17446;48.022;-1.740;2023-01-16T15:43:18;9.40;99.90
30694;DHT22;17446;48.022;-1.740;2023-01-16T15:49:30;9.40;99.90
30694;DHT22;17446;48.022;-1.740;2023-01-16T15:52:00;9.30;99.90
30694;DHT22;17446;48.022;-1.740;2023-01-16T15:54:26;9.30;99.90
30694;DHT22;17446;48.022;-1.740;2023-01-16T15:56:52;9.20;99.90
30694;DHT22;17446;48.022;-1.740;2023-01-16T15:59:27;9.20;99.90
30694;DHT22;17446;48.022;-1.740;2023-01-16T16:04:45;9.10;99.90
30694;DHT22;17446;48.022;-1.740;2023-01-16T16:07:12;9.10;99.90
30694;DHT22;17446;48.022;-1.740;2023-01-16T16:09:39;9.00;99.90
30694;DHT22;17446;48.022;-1.740;2023-01-16T16:12:05;9.00;99.90
30694;DHT22;17446;48.022;-1.740;2023-01-16T16:14:33;9.00;99.90
30694;DHT22;17446;48.022;-1.740;2023-01-16T16:17:32;9.00;99.90
30694;DHT22;17446;48.022;-1.740;2023-01-16T16:20:35;8.90;99.90
30694;DHT22;17446;48.022;-1.740;2023-01-16T16:23:14;8.90;99.90
30694;DHT22;17446;48.022;-1.740;2023-01-16T16:25:50;8.80;99.90
30694;DHT22;17446;48.022;-1.740;2023-01-16T16:28:26;8.90;99.90
30694;DHT22;17446;48.022;-1.740;2023-01-16T16:31:16;9.00;99.90
30694;DHT22;17446;48.022;-1.740;2023-01-16T16:34:13;8.90;99.90
30694;DHT22;17446;48.022;-1.740;2023-01-16T16:36:44;8.90;99.90
30694;DHT22;17446;48.022;-1.740;2023-01-16T16:39:45;8.90;99.90
30694;DHT22;17446;48.022;-1.740;2023-01-16T16:47:44;8.80;99.90
30694;DHT22;17446;48.022;-1.740;2023-01-16T16:53:24;8.70;99.90
30694;DHT22;17446;48.022;-1.740;2023-01-16T16:56:05;8.70;99.90
30694;DHT22;17446;48.022;-1.740;2023-01-16T16:58:33;8.70;99.90
30694;DHT22;17446;48.022;-1.740;2023-01-16T17:01:05;8.70;99.90
30694;DHT22;17446;48.022;-1.740;2023-01-16T17:03:31;8.70;99.90
30694;DHT22;17446;48.022;-1.740;2023-01-16T17:05:56;8.70;99.90
30694;DHT22;17446;48.022;-1.740;2023-01-16T17:08:25;8.70;99.90
30694;DHT22;17446;48.022;-1.740;2023-01-16T17:10:53;8.60;99.90
30694;DHT22;17446;48.022;-1.740;2023-01-16T17:13:20;8.40;99.90
30694;DHT22;17446;48.022;-1.740;2023-01-16T17:15:48;8.30;99.90
30694;DHT22;17446;48.022;-1.740;2023-01-16T17:18:14;8.30;99.90
30694;DHT22;17446;48.022;-1.740;2023-01-16T17:20:41;8.10;99.90
30694;DHT22;17446;48.022;-1.740;2023-01-16T17:23:16;8.00;99.90
30694;DHT22;17446;48.022;-1.740;2023-01-16T17:25:42;8.00;99.90
30694;DHT22;17446;48.022;-1.740;2023-01-16T17:28:09;7.90;99.90
30694;DHT22;17446;48.022;-1.740;2023-01-16T17:30:35;7.80;99.90
30694;DHT22;17446;48.022;-1.740;2023-01-16T17:33:06;7.80;99.90
30694;DHT22;17446;48.022;-1.740;2023-01-16T17:35:40;7.70;99.90
30694;DHT22;17446;48.022;-1.740;2023-01-16T17:38:16;7.60;99.90
30694;DHT22;17446;48.022;-1.740;2023-01-16T17:40:42;7.60;99.90
30694;DHT22;17446;48.022;-1.740;2023-01-16T17:43:17;7.50;99.90
30694;DHT22;17446;48.022;-1.740;2023-01-16T17:46:06;7.50;99.90
30694;DHT22;17446;48.022;-1.740;2023-01-16T17:48:33;7.40;99.90
30694;DHT22;17446;48.022;-1.740;2023-01-16T17:50:58;7.40;99.90
30694;DHT22;17446;48.022;-1.740;2023-01-16T17:53:26;7.30;99.90
30694;DHT22;17446;48.022;-1.740;2023-01-16T17:55:53;7.30;99.90
30694;DHT22;17446;48.022;-1.740;2023-01-16T18:01:04;7.20;99.90
30694;DHT22;17446;48.022;-1.740;2023-01-16T18:03:31;7.10;99.90
30694;DHT22;17446;48.022;-1.740;2023-01-16T18:06:02;7.10;99.90
30694;DHT22;17446;48.022;-1.740;2023-01-16T18:08:29;7.00;99.90
30694;DHT22;17446;48.022;-1.740;2023-01-16T18:10:55;7.00;99.90
30694;DHT22;17446;48.022;-1.740;2023-01-16T18:13:21;7.00;99.90
30694;DHT22;17446;48.022;-1.740;2023-01-16T18:16:06;6.90;99.90
30694;DHT22;17446;48.022;-1.740;2023-01-16T18:18:50;6.90;99.90
30694;DHT22;17446;48.022;-1.740;2023-01-16T18:21:17;6.80;99.90
30694;DHT22;17446;48.022;-1.740;2023-01-16T18:24:01;6.80;99.90
30694;DHT22;17446;48.022;-1.740;2023-01-16T18:26:27;6.80;99.90
30694;DHT22;17446;48.022;-1.740;2023-01-16T18:28:53;6.70;99.90
30694;DHT22;17446;48.022;-1.740;2023-01-16T18:31:20;6.70;99.90
30694;DHT22;17446;48.022;-1.740;2023-01-16T18:33:46;6.70;99.90
30694;DHT22;17446;48.022;-1.740;2023-01-16T18:36:17;6.70;99.90
30694;DHT22;17446;48.022;-1.740;2023-01-16T18:38:44;6.60;99.90
30694;DHT22;17446;48.022;-1.740;2023-01-16T18:41:28;6.60;99.90
30694;DHT22;17446;48.022;-1.740;2023-01-16T18:44:12;6.60;99.90